Slide Mountain Weather observations

Data are for 10 minute period ending at time listed.
 Day   Time   Solar   Ave.   Ave.  Ave.  Vector  Max.    Baro.  
  of    of     Rad.   Air    Rel.  Wind   Wind   Wind   Press.  
Year   Day            Temp.  Hum.  Speed  Dir.   Gust           
2014   (PST)  Kw/m2    F      %     mph   deg.    mph     mb.   
-----------------------------------------------------------------
 234    6:00   0.06   43.8    64   38.7   249     56.5    714.2 
 234    6:10   0.10   43.7    65   41.5   250     56.8    714.1 
 234    6:20   0.12   43.8    65   41.6   252     52.5    714.0 
 234    6:30   0.15   43.8    65   44.3   252     58.2    713.9 
 234    6:40   0.18   44.1    64   42.9   251     55.7    713.7 
 234    6:50   0.20   44.3    63   43.9   250     57.6    713.8 
 234    7:00   0.23   44.4    63   42.5   250     56.2    713.9 
 234    7:10   0.26   44.8    62   41.7   248     57.8    713.8 
 234    7:20   0.29   45.0    61   43.9   248     59.1    713.6 
 234    7:30   0.32   45.3    59   45.0   248     61.0    713.5 
 234    7:40   0.35   45.7    57   43.9   246     59.5    713.4 
 234    7:50   0.38   46.0    57   45.0   246     60.5    713.3 
 234    8:00   0.40   46.1    56   46.2   247     68.9    713.3 
 234    8:10   0.43   46.3    55   46.0   247     60.4    713.3 
 234    8:20   0.46   47.0    53   39.9   251     57.5    713.5 
 234    8:30   0.48   47.0    51   41.4   253     56.4    713.6 
 234    8:40   0.51   47.6    51   39.1   248     58.7    713.9 
 234    8:50   0.53   47.7    50   41.7   252     56.0    713.8 
 234    9:00   0.56   48.0    51   40.4   252     58.3    713.9 
 234    9:10   0.58   48.4    51   39.9   251     58.8    713.9 
 234    9:20   0.60   48.5    49   41.2   247     51.8    714.0 
 234    9:30   0.63   48.8    47   40.8   251     56.1    714.0 
 234    9:40   0.65   48.9    48   41.3   251     58.1    714.2 
 234    9:50   0.67   49.1    49   41.0   251     58.6    714.3 
 234   10:00   0.69   49.7    49   37.6   250     51.1    714.5 
 234   10:10   0.70   50.2    49   36.8   249     51.1    714.5 
 234   10:20   0.72   50.5    49   35.2   247     56.3    714.4 
 234   10:30   0.73   51.2    49   34.1   243     47.7    714.4 
 234   10:40   0.74   51.7    49   28.3   250     43.2    714.6 
 234   10:50   0.76   51.8    49   33.1   246     47.6    714.5 
 234   11:00   0.77   52.0    50   30.3   241     45.1    714.6 
 234   11:10   0.77   52.1    49   34.3   238     47.5    714.5 
 234   11:20   0.78   52.6    49   29.9   241     39.7    714.5 
 234   11:30   0.79   52.9    47   30.2   239     40.9    714.5 
 234   11:40   0.79   53.6    45   28.8   245     46.6    714.7 
 234   11:50   0.80   54.0    44   28.0   241     46.2    714.6 
 234   12:00   0.80   54.1    43   25.7   244     38.5    714.7 
 234   12:10   0.80   55.1    44   22.9   253     39.2    714.7 
 234   12:20   0.80   54.7    44   23.7   247     35.0    714.7 
 234   12:30   0.80   55.4    43   24.1   246     39.3    714.5 
 234   12:40   0.79   55.3    42   26.0   250     35.7    714.5 
 234   12:50   0.79   55.3    44   24.3   244     39.2    714.4 
 234   13:00   0.78   56.1    43   22.1   248     38.9    714.5 
 234   13:10   0.77   56.6    41   22.2   249     38.3    714.5 
 234   13:20   0.77   56.1    40   26.5   252     41.1    714.6 
 234   13:30   0.76   56.0    39   25.8   253     39.6    714.4 
 234   13:40   0.74   56.1    39   25.5   254     40.0    714.5 
 234   13:50   0.73   56.3    40   21.8   251     36.7    714.5 
 234   14:00   0.71   56.2    40   24.2   249     42.2    714.5 
 234   14:10   0.70   56.2    40   23.9   249     33.7    714.5 
 234   14:20   0.68   55.7    41   24.8   253     34.5    714.5 
 234   14:30   0.66   56.5    41   20.5   256     37.1    714.6 
 234   14:40   0.64   57.1    40   18.9   255     39.1    714.6 
 234   14:50   0.62   56.7    41   19.6   255     36.1    714.6 
 234   15:00   0.60   57.8    41   15.8   260     29.4    714.7 
 234   15:10   0.58   57.1    41   19.0   253     33.0    714.7 
 234   15:20   0.55   57.0    40   18.3   253     28.8    714.7 
 234   15:30   0.53   56.9    40   17.6   258     25.1    714.7 
 234   15:40   0.51   56.8    40   19.5   260     29.5    714.7 
 234   15:50   0.48   55.4    42   20.6   258     33.0    714.8 
 234   16:00   0.46   55.5    41   19.4   252     33.8    714.8 
 234   16:10   0.43   55.7    41   17.5   260     27.5    714.8 
 234   16:20   0.41   55.9    40   14.1   255     30.9    715.0 
 234   16:30   0.38   55.9    40   14.1   256     20.7    715.0 
 234   16:40   0.35   55.0    42   17.0   256     26.2    715.1 
 234   16:50   0.32   54.6    43   16.0   261     24.9    715.1 
 234   17:00   0.29   53.9    43   16.9   257     28.8    715.1 
 234   17:10   0.27   54.3    42   14.5   260     23.8    715.1 
 234   17:20   0.24   53.1    45   20.1   255     32.7    715.0 
 234   17:30   0.21   52.4    47   19.7   260     27.6    715.0 
 234   17:40   0.18   52.1    47   17.2   258     23.8    715.0 
 234   17:50   0.15   51.6    48   17.2   261     26.0    715.0 
 234   18:00   0.13   51.0    50   17.4   263     29.0    714.9 
 234   18:10   0.10   50.4    51   15.3   262     25.1    715.0 
 234   18:20   0.07   49.6    53   15.1   255     24.5    715.1 
 234   18:30   0.04   48.5    55   16.5   262     26.7    715.1 
 234   18:40   0.01   47.4    57   21.4   265     29.1    715.1 
 234   18:50   0.00   46.5    60   21.7   265     29.7    715.1 
 234   19:00   0.00   46.1    59   21.0   264     26.5    715.2 
 234   19:10   0.00   45.6    61   19.7   261     27.4    715.3 
 234   19:20   0.00   45.1    63   20.6   259     26.7    715.3 
 234   19:30   0.00   44.9    64   22.8   254     29.6    715.4 
 234   19:40   0.00   44.7    65   22.1   258     29.0    715.5 
 234   19:50   0.00   44.3    65   20.7   261     25.4    715.6 
 234   20:00   0.00   44.1    66   24.3   266     29.2    715.5 
 234   20:10   0.00   44.0    66   24.5   268     28.7    715.5 
 234   20:20   0.00   43.8    65   24.0   272     29.2    715.6 
 234   20:30   0.00   44.0    61   25.5   269     32.0    715.7 
 234   20:40   0.00   44.0    61   24.4   267     31.2    715.7 
 234   20:50   0.00   43.8    60   24.2   270     28.8    715.8 
 234   21:00   0.00   43.5    59   25.2   276     31.4    715.9 
 234   21:10   0.00   43.6    56   25.2   272     31.1    715.8 
 234   21:20   0.00   43.6    57   24.9   267     32.9    715.8 
 234   21:30   0.00   43.6    58   25.1   263     33.8    716.0 
 234   21:40   0.00   43.9    56   25.4   264     33.4    716.0 
 234   21:50   0.00   43.9    56   23.5   270     32.3    716.2 
 234   22:00   0.00   43.8    58   21.5   271     26.5    716.2 
 234   22:10   0.00   43.9    60   22.0   267     27.2    716.2 
 234   22:20   0.00   43.9    61   20.7   263     26.3    716.3 
 234   22:30   0.00   43.6    65   18.4   271     23.6    716.3 
 234   22:40   0.00   43.3    67   17.1   274     21.1    716.4 
 234   22:50   0.00   43.5    65   16.0   273     19.4    716.4 
 234   23:00   0.00   43.9    62   14.4   274     18.9    716.4 
 234   23:10   0.00   43.9    61   12.0   270     15.1    716.5 
 234   23:20   0.00   43.8    61   10.3   266     13.3    716.5 
 234   23:30   0.00   43.9    60    9.5   272     12.7    716.5 
 234   23:40   0.00   43.9    60    9.8   264     12.7    716.4 
 234   23:50   0.00   43.9    59    9.0   264     11.2    716.4 
 235    0:00   0.00   44.0    54    8.9   269     11.8    716.4 
 235    0:10   0.00   44.1    49    9.0   268     11.2    716.4 
 235    0:20   0.00   44.0    50    8.9   266     11.3    716.3 
 235    0:30   0.00   44.0    49    8.9   263     10.7    716.3 
 235    0:40   0.00   43.9    49    8.2   266     10.0    716.2 
 235    0:50   0.00   43.7    52    8.6   264     11.5    716.2 
 235    1:00   0.00   43.8    53    8.1   268     10.2    716.2 
 235    1:10   0.00   43.6    54    7.3   265     11.5    716.2 
 235    1:20   0.00   43.6    54    6.6   267      8.7    716.1 
 235    1:30   0.00   43.5    54    6.3   259      8.2    716.1 
 235    1:40   0.00   43.7    52    6.4   259      9.1    716.1 
 235    1:50   0.00   43.7    52    5.1   263      7.0    716.1 
 235    2:00   0.00   43.5    52    5.7   259      8.1    716.2 
 235    2:10   0.00   43.3    53    4.9   260      7.8    716.2 
 235    2:20   0.00   43.3    52    5.0   253      8.0    716.2 
 235    2:30   0.00   43.4    52    4.2   241      6.3    716.3 
 235    2:40   0.00   43.0    54    1.3   246      4.2    716.2 
 235    2:50   0.00   42.8    53    2.6   242      4.6    716.2 
 235    3:00   0.00   42.8    53    1.5   220      4.7    716.2 
 235    3:10   0.00   43.3    50    0.3   200      1.1    716.2 
 235    3:20   0.00   43.9    47    0.0   184      0.1    716.2 
 235    3:30   0.00   43.9    47    0.0   180      0.3    716.1 
 235    3:40   0.00   43.7    48    0.3   207      1.0    716.1 
 235    3:50   0.00   43.7    48    0.4   199      1.9    716.0 
 235    4:00   0.00   43.7    49    0.6   196      2.6    716.0 
 235    4:10   0.00   43.5    51    0.0   162      0.1    716.0 
 235    4:20   0.00   43.2    51    0.0     0      0.0    716.0 
 235    4:30   0.00   43.3    50    0.1   188      0.8    716.0 
 235    4:40   0.00   43.3    52    0.2   220      1.1    716.0 
 235    4:50   0.00   43.0    52    0.0   220      0.1    716.0 
 235    5:00   0.00   42.7    55    0.0     0      0.0    716.1 
 235    5:10   0.00   42.5    55    0.0     0      0.0    716.1 
 235    5:20   0.00   42.5    57    0.0   218      0.1    716.1 
 235    5:30   0.01   42.4    58    0.0   238      0.6    716.2 
 235    5:40   0.02   43.4    57    0.0   239      0.1    716.2 
 235    5:50   0.04   44.2    55    0.0     0      0.0    716.3 

Return to Slide Mountain graphs page.


Western Regional Climate Center,wrcc@dri.edu